Hlavní strana
METAR-TAF:

METAR-TAF

Letiště :

Nipawin, Saskatchewan, Kanada

zeměpisná šířka: 53-20N, zeměpisná délka: 104-00W, výška: 372 m

Aktuální stav počasí

Zpráva byla vytvořena před 53 minutami, v 23:03 UTC
Severní vítr 7 kt
Teplota -9°C
Vlhkost vzduchu 92%
Tlak 1020 hPa
Viditelnost: 14.5 km
Polojasno ve výšce 2000 ft
Zataženo ve výšce 3400 ft
slabé sněžení

METAR: CYBU 152303Z AUTO 36007KT 9SM -SN SCT020 OVC034 M09/M10 A3011 RMK SLP226

Čas: 17:56 (23:56 UTC)


TAF: chybějící

Stav a předpovědi počasí z více než 4 000 letišť (zprávy METAR a TAF).

Červené a žluté tečky na mapě představují dostupné meteorologické stanice.

Když kurzor umístíte na tečku, zobrazí se název stanice.

Pak kliknutím zobrazíte stav a předpověď počasí.

Chcete-li změnit mapu, kliknutím na zelené tlačítko se znaménkem +mapu přiblížíte, kliknutím na zelené tlačítko se znaménkem – mapu oddálíte a kliknutím na zelené šipky přejdete na sousední mapy.


METAR-TAF: